Hurlburt Field, Florida
Current Conditions -  °F | °C
As of 10:58 PM on Thursday 27 Nov 2014 (Local Time) from KHRT Reporting Station
Clear Clear  
Wind Chill: 34°   Ceiling: Unl
Heat Index: 41°   Visibility: 10mi
Dew Point: 29°   Wind: 13mph
Humidity: 61%   Direction: 10°N
Pressure: 30.41"   Gusts: NA
Location:  30.43°N, 86.69°W
Report Text: KHRT 280458Z AUTO 01011KT 10SM CLR 05/M02 A3041 RMK AO2 SLP300 T00521017 $
Loading
Personal Weather Stations






























Interactive Weather Map New forecast layout! Learn more

10-Day Weather Forecast

Advertisements
Track Severe Weather on mobile